Temp: 12.2°C   Hum: 87%
  Wind: 0.9mph   Dir: W (276°)
  Rain: 0.0mm Rate: 0.0mm/hr
  Pressure: 1027.1mb

Historic data

Bath Spa Weather Station Historical Data
Daily Summary for July 01, 2022 Units:  English    Metric   Both
Daily Weekly Monthly Yearly Custom
  High: Low: Average:
Temperature: 61.5 °F 50.7 °F 56.8 °F
Dew Point: 55 °F 48.7 °F 51.9 °F
Humidity: 94% 70.8% 84%
Wind Speed: 7.9mph 0mph 2.9mph
Wind Gust: 17mph - -
Wind- - WSW
Pressure: 30.10 in 29.96 in -
Precipitation: 0.02 in    
Historical Graphs
 
 
Tabular Data for July 01, 2022
Time Temperature Dew Point Pressure Wind Wind Speed Wind Gust Humidity Rainfall Rate (Hourly) solar
00:09 53.1 °F 50.9 °F 29.96 in West 0.5 mph 2 mph 92.4% 0.00 in 0 W/m2
00:14 53.1 °F 51.1 °F 29.96 in Calm   2 mph 92.8% 0.00 in 0 W/m2
00:19 53.2 °F 51.3 °F 29.96 in West 0.8 mph 2 mph 93% 0.00 in 0 W/m2
00:24 53.2 °F 51.3 °F 29.96 in West 0.4 mph 2 mph 93% 0.00 in 0 W/m2
00:29 53.2 °F 51.3 °F 29.96 in Calm   1 mph 93% 0.00 in 0 W/m2
00:34 53.4 °F 51.4 °F 29.96 in Calm   1 mph 93% 0.00 in 0 W/m2
00:39 53.4 °F 51.4 °F 29.96 in Calm   1 mph 93% 0.00 in 0 W/m2
00:44 53.4 °F 51.4 °F 29.96 in West 0.4 mph 1 mph 93% 0.00 in 0 W/m2
00:49 53.4 °F 51.4 °F 29.97 in West 1.2 mph 2 mph 93% 0.00 in 0 W/m2
00:54 53.4 °F 51.4 °F 29.97 in West 1.2 mph 4 mph 93% 0.00 in 0 W/m2
00:59 53.4 °F 51.4 °F 29.97 in West 0.4 mph 2 mph 93% 0.00 in 0 W/m2
01:04 53.4 °F 51.4 °F 29.96 in West 1.2 mph 3 mph 93% 0.00 in 0 W/m2
01:09 53.4 °F 51.4 °F 29.97 in West 0.9 mph 4 mph 93% 0.00 in 0 W/m2
01:14 53.4 °F 51.4 °F 29.96 in West 0.6 mph 3 mph 93% 0.00 in 0 W/m2
01:19 53.4 °F 51.4 °F 29.96 in West 1.5 mph 3 mph 93% 0.00 in 0 W/m2
01:24 53.4 °F 51.4 °F 29.96 in West 1.3 mph 3 mph 93% 0.00 in 0 W/m2
01:29 53.4 °F 51.4 °F 29.96 in West 1.8 mph 5 mph 93% 0.00 in 0 W/m2
01:34 53.4 °F 51.4 °F 29.96 in West 2 mph 3 mph 93% 0.00 in 0 W/m2
01:39 53.4 °F 51.4 °F 29.96 in West 1.4 mph 3 mph 93% 0.01 in 0 W/m2
01:44 53.4 °F 51.4 °F 29.96 in West 0.7 mph 3 mph 93% 0.01 in 0 W/m2
01:49 53.6 °F 51.6 °F 29.96 in West 1.2 mph 3 mph 93% 0.01 in 0 W/m2
01:54 53.6 °F 51.6 °F 29.96 in West 1.7 mph 4 mph 93% 0.01 in 0 W/m2
01:59 53.6 °F 51.6 °F 29.96 in West 1.3 mph 2 mph 93% 0.01 in 0 W/m2
02:04 53.6 °F 51.6 °F 29.96 in West 0.5 mph 3 mph 93% 0.01 in 0 W/m2
02:09 53.7 °F 51.7 °F 29.96 in West 0.8 mph 2 mph 93% 0.01 in 0 W/m2
02:14 53.8 °F 51.8 °F 29.96 in West 0.2 mph 2 mph 93% 0.01 in 0 W/m2
02:19 53.8 °F 51.8 °F 29.96 in West 0.5 mph 2 mph 93% 0.01 in 0 W/m2
02:24 53.8 °F 51.8 °F 29.96 in West 0.9 mph 2 mph 93% 0.01 in 0 W/m2
02:29 53.7 °F 51.7 °F 29.96 in West 1.8 mph 3 mph 93% 0.01 in 0 W/m2
02:34 53.6 °F 51.6 °F 29.96 in West 1.7 mph 4 mph 93% 0.01 in 0 W/m2
02:39 53.4 °F 51.4 °F 29.96 in SW 2.9 mph 5 mph 93% 0.00 in 0 W/m2
02:44 53.2 °F 51.3 °F 29.97 in SW 2.2 mph 4 mph 93% 0.00 in 0 W/m2
02:49 53.2 °F 51.3 °F 29.97 in SW 2 mph 4 mph 93% 0.00 in 0 W/m2
02:54 53.1 °F 51.1 °F 29.97 in SW 2.3 mph 4 mph 93% 0.00 in 0 W/m2
02:59 52.9 °F 50.9 °F 29.97 in SW 1.5 mph 4 mph 93% 0.00 in 0 W/m2
03:04 52.7 °F 50.7 °F 29.97 in WSW 2.5 mph 4 mph 93% 0.00 in 0 W/m2
03:09 52.5 °F 50.5 °F 29.97 in West 0.6 mph 4 mph 93% 0.00 in 0 W/m2
03:14 52.5 °F 50.5 °F 29.97 in West 1 mph 4 mph 93% 0.00 in 0 W/m2
03:19 52.5 °F 50.5 °F 29.97 in WSW 2.1 mph 3 mph 93% 0.00 in 0 W/m2
03:24 52.5 °F 50.5 °F 29.97 in WSW 0.8 mph 3 mph 93% 0.00 in 0 W/m2
03:29 52.5 °F 50.5 °F 29.97 in WSW 1.3 mph 4 mph 93% 0.00 in 0 W/m2
03:34 52.3 °F 50.4 °F 29.97 in WSW 1.7 mph 3 mph 93% 0.00 in 0 W/m2
03:39 52.3 °F 50.4 °F 29.97 in WSW 1.2 mph 3 mph 93% 0.00 in 0 W/m2
03:44 52.3 °F 50.4 °F 29.97 in WSW 1.6 mph 3 mph 93% 0.00 in 0 W/m2
03:49 52.3 °F 50.3 °F 29.97 in WNW 2.8 mph 6 mph 93% 0.00 in 0 W/m2
03:54 52.2 °F 50.2 °F 29.97 in WNW 1.3 mph 4 mph 93% 0.00 in 0 W/m2
03:59 52.2 °F 50.2 °F 29.97 in WNW 1.3 mph 2 mph 93% 0.00 in 0 W/m2
04:04 52.1 °F 50.1 °F 29.98 in WNW 2.3 mph 4 mph 93% 0.00 in 0 W/m2
04:09 52 °F 50 °F 29.98 in WNW 1.6 mph 4 mph 93% 0.00 in 0 W/m2
04:14 52 °F 50 °F 29.98 in WNW 1.6 mph 4 mph 93% 0.00 in 0 W/m2
04:19 52 °F 50 °F 29.98 in WNW 0.5 mph 2 mph 93% 0.00 in 0 W/m2
04:24 52 °F 50 °F 29.98 in West 2 mph 6 mph 93% 0.00 in 0 W/m2
04:29 51.8 °F 49.8 °F 29.98 in West 1.6 mph 3 mph 93% 0.00 in 0 W/m2
04:34 51.7 °F 49.7 °F 29.98 in West 1.3 mph 3 mph 93% 0.00 in 0 W/m2
04:39 51.6 °F 49.6 °F 29.98 in West 0.5 mph 2 mph 93% 0.00 in 0 W/m2
04:44 51.6 °F 49.6 °F 29.98 in West 1.2 mph 4 mph 93% 0.00 in 0 W/m2
04:49 51.5 °F 49.5 °F 29.98 in West 0.2 mph 3 mph 93% 0.00 in 0 W/m2
04:54 51.4 °F 49.5 °F 29.98 in West 1.4 mph 3 mph 93% 0.00 in 0 W/m2
04:59 51.4 °F 49.5 °F 29.98 in West 0.9 mph 2 mph 93% 0.00 in 0 W/m2
05:04 51.3 °F 49.3 °F 29.98 in West 0.4 mph 2 mph 93% 0.00 in 0 W/m2
05:09 51.3 °F 49.3 °F 29.98 in Calm   2 mph 93% 0.00 in 5 W/m2
05:14 51.2 °F 49.3 °F 29.98 in Calm   1 mph 93.2% 0.00 in 9 W/m2
05:19 51 °F 49 °F 29.98 in West 1.2 mph 2 mph 93% 0.00 in 11 W/m2
05:24 50.8 °F 48.8 °F 29.99 in West 0.8 mph 2 mph 93% 0.00 in 12 W/m2
05:29 50.7 °F 48.7 °F 29.99 in West 1.8 mph 2 mph 93% 0.00 in 18 W/m2
05:34 50.8 °F 48.8 °F 29.99 in West 1.7 mph 3 mph 93% 0.00 in 19 W/m2
05:39 50.9 °F 49.3 °F 29.99 in West 1.2 mph 3 mph 94% 0.00 in 26 W/m2
05:44 50.9 °F 49.3 °F 29.99 in West 0.9 mph 2 mph 94% 0.00 in 37 W/m2
05:49 51 °F 49.4 °F 29.99 in West 1.3 mph 3 mph 94% 0.00 in 37 W/m2
05:54 51.1 °F 49.5 °F 29.99 in West 1.4 mph 3 mph 94% 0.00 in 44 W/m2
05:59 51.2 °F 49.6 °F 29.99 in West 1 mph 3 mph 94% 0.00 in 47 W/m2
06:04 51.3 °F 49.6 °F 29.99 in West 0.2 mph 2 mph 94% 0.00 in 58 W/m2
06:09 51.4 °F 49.8 °F 29.99 in West 1 mph 2 mph 94% 0.00 in 84 W/m2
06:14 51.6 °F 50 °F 29.99 in Calm   2 mph 94% 0.00 in 84 W/m2
06:19 51.8 °F 50.2 °F 29.99 in West 0.4 mph 2 mph 94% 0.00 in 93 W/m2
06:24 52.1 °F 50.5 °F 29.99 in Calm   2 mph 94% 0.00 in 83 W/m2
06:29 52.3 °F 50.6 °F 30.00 in Calm     94% 0.00 in 72 W/m2
06:34 52.4 °F 50.8 °F 30.00 in West 1.1 mph 2 mph 94% 0.00 in 93 W/m2
06:39 52.7 °F 51.1 °F 30.00 in West 0.7 mph 2 mph 94% 0.00 in 107 W/m2
06:44 52.9 °F 51.3 °F 30.00 in Calm   1 mph 94% 0.00 in 98 W/m2
06:49 52.8 °F 51.2 °F 30.00 in Calm   1 mph 94% 0.00 in 98 W/m2
06:54 52.9 °F 51.3 °F 30.00 in West 0.9 mph 2 mph 94% 0.00 in 95 W/m2
06:59 53.1 °F 51.4 °F 30.00 in West 0.4 mph 2 mph 94% 0.00 in 95 W/m2
07:04 53.2 °F 51.6 °F 30.00 in West 0.4 mph 2 mph 94% 0.00 in 111 W/m2
07:09 53.4 °F 51.8 °F 30.00 in West 0.4 mph 3 mph 94% 0.00 in 139 W/m2
07:14 53.5 °F 51.9 °F 30.01 in West 0.8 mph 2 mph 94% 0.00 in 144 W/m2
07:19 54 °F 52.3 °F 30.01 in West 1.9 mph 4 mph 94% 0.00 in 121 W/m2
07:24 54.1 °F 52.5 °F 30.01 in West 1.8 mph 4 mph 94% 0.00 in 105 W/m2
07:29 54.4 °F 52.8 °F 30.01 in West 1.3 mph 3 mph 94% 0.00 in 93 W/m2
07:34 54.5 °F 52.9 °F 30.01 in West 2.6 mph 6 mph 94% 0.00 in 83 W/m2
07:39 54.5 °F 52.9 °F 30.01 in West 1.6 mph 4 mph 94% 0.00 in 100 W/m2
07:44 54.7 °F 53.1 °F 30.01 in West 3.2 mph 7 mph 94% 0.01 in 158 W/m2
07:49 54.7 °F 53.1 °F 30.01 in West 2.4 mph 5 mph 94% 0.01 in 179 W/m2
07:54 54.9 °F 53.2 °F 30.01 in West 2.4 mph 4 mph 94% 0.01 in 176 W/m2
07:59 54.9 °F 53.2 °F 30.01 in West 2.8 mph 6 mph 94% 0.01 in 151 W/m2
08:04 54.8 °F 53.1 °F 30.01 in West 4.8 mph 7 mph 94% 0.01 in 142 W/m2
08:09 54.9 °F 53.2 °F 30.01 in West 2.7 mph 9 mph 94% 0.01 in 137 W/m2
08:14 54.9 °F 53.2 °F 30.01 in West 3.3 mph 7 mph 94% 0.02 in 137 W/m2
08:19 54.9 °F 53.2 °F 30.01 in West 2.9 mph 7 mph 94% 0.02 in 121 W/m2
08:24 54.9 °F 53.2 °F 30.01 in WSW 3.7 mph 7 mph 94% 0.02 in 125 W/m2
08:29 55 °F 53.4 °F 30.01 in WSW 1.7 mph 5 mph 94% 0.02 in 128 W/m2
08:34 55 °F 53.4 °F 30.01 in WSW 3 mph 5 mph 94% 0.02 in 120 W/m2
08:39 55.1 °F 53.5 °F 30.01 in West 3.4 mph 6 mph 94% 0.02 in 123 W/m2
08:44 55.1 °F 53.5 °F 30.02 in West 3.3 mph 5 mph 94% 0.02 in 137 W/m2
08:49 55.1 °F 53.5 °F 30.02 in WSW 3.2 mph 8 mph 94% 0.01 in 135 W/m2
08:54 55 °F 53.4 °F 30.02 in WSW 3.7 mph 7 mph 94% 0.01 in 125 W/m2
08:59 55.1 °F 53.3 °F 30.02 in WSW 2.5 mph 5 mph 93.4% 0.01 in 165 W/m2
09:04 55.2 °F 53.2 °F 30.02 in SW 4 mph 7 mph 93% 0.01 in 181 W/m2
09:09 55.2 °F 53.2 °F 30.02 in WSW 2.8 mph 7 mph 93% 0.01 in 202 W/m2
09:14 55.4 °F 53.4 °F 30.02 in WSW 4 mph 8 mph 93% 0.01 in 204 W/m2
09:19 55.6 °F 53.6 °F 30.02 in WSW 4.4 mph 6 mph 93% 0.00 in 200 W/m2
09:24 55.9 °F 53.9 °F 30.02 in WSW 2.6 mph 5 mph 93% 0.00 in 227 W/m2
09:29 56.1 °F 54.1 °F 30.02 in West 2.5 mph 6 mph 93% 0.00 in 246 W/m2
09:34 56.5 °F 54.4 °F 30.02 in WSW 2.5 mph 5 mph 92.8% 0.00 in 234 W/m2
09:39 56.6 °F 54.5 °F 30.02 in WSW 2.5 mph 7 mph 92.8% 0.00 in 229 W/m2
09:44 56.7 °F 54.4 °F 30.02 in West 2.7 mph 7 mph 92% 0.00 in 202 W/m2
09:49 56.9 °F 54.6 °F 30.03 in WSW 4 mph 8 mph 92% 0.00 in 257 W/m2
09:54 57 °F 54.7 °F 30.03 in WSW 2.8 mph 8 mph 92% 0.00 in 253 W/m2
09:59 57.4 °F 55 °F 30.03 in West 6 mph 10 mph 91.6% 0.00 in 248 W/m2
10:04 57.5 °F 55 °F 30.03 in West 4.4 mph 11 mph 91% 0.00 in 269 W/m2
10:09 57.7 °F 55 °F 30.03 in West 4.5 mph 8 mph 90.4% 0.00 in 295 W/m2
10:14 57.7 °F 54.7 °F 30.03 in West 4.5 mph 9 mph 89.4% 0.00 in 313 W/m2
10:19 58 °F 54.7 °F 30.03 in West 5.5 mph 12 mph 88.6% 0.00 in 359 W/m2
10:24 58.4 °F 54.7 °F 30.03 in West 4.5 mph 11 mph 87.4% 0.00 in 461 W/m2
10:29 58.8 °F 54.7 °F 30.03 in WSW 7.9 mph 12 mph 86% 0.00 in 603 W/m2
10:34 59.2 °F 54.2 °F 30.03 in West 5.3 mph 10 mph 83.8% 0.00 in 636 W/m2
10:39 59.5 °F 54 °F 30.03 in West 6.2 mph 11 mph 82% 0.00 in 561 W/m2
10:44 59.9 °F 54.1 °F 30.03 in WSW 3.7 mph 9 mph 81% 0.00 in 550 W/m2
10:49 60.2 °F 53.9 °F 30.03 in West 2.8 mph 10 mph 79.4% 0.00 in 506 W/m2
10:54 60.3 °F 53.5 °F 30.03 in West 5.9 mph 14 mph 78.2% 0.00 in 255 W/m2
10:59 60.2 °F 53 °F 30.03 in West 6.2 mph 13 mph 77% 0.00 in 260 W/m2
11:04 59.8 °F 52.9 °F 30.03 in WNW 6.2 mph 13 mph 77.8% 0.00 in 339 W/m2
11:09 60.2 °F 53.2 °F 30.03 in West 5.4 mph 9 mph 77.4% 0.00 in 380 W/m2
11:14 60.3 °F 52.5 °F 30.03 in West 5.4 mph 11 mph 75.4% 0.00 in 260 W/m2
11:19 60.3 °F 52.6 °F 30.03 in WNW 5.4 mph 9 mph 75.8% 0.00 in 891 W/m2
11:24 60.9 °F 53.6 °F 30.03 in WNW 6.8 mph 13 mph 76.8% 0.00 in 1079 W/m2
11:29 61.3 °F 53.6 °F 30.03 in West 5.7 mph 13 mph 75.6% 0.00 in 1079 W/m2
11:34 61.3 °F 53.2 °F 30.03 in West 5.3 mph 14 mph 74.4% 0.00 in 483 W/m2
11:39 61.5 °F 53.2 °F 30.03 in West 4.9 mph 13 mph 74% 0.00 in 455 W/m2
11:44 61.1 °F 52.2 °F 30.03 in West 7.8 mph 13 mph 72.4% 0.00 in 345 W/m2
11:49 60.8 °F 51.9 °F 30.03 in West 6.2 mph 10 mph 72.4% 0.00 in 223 W/m2
11:54 60.4 °F 51.4 °F 30.03 in WSW 6 mph 10 mph 72% 0.00 in 156 W/m2
11:59 60.3 °F 51.6 °F 30.04 in West 6.7 mph 10 mph 72.8% 0.00 in 132 W/m2
12:04 59.9 °F 51.3 °F 30.04 in West 5.6 mph 9 mph 73% 0.00 in 197 W/m2
12:09 59.7 °F 51.1 °F 30.03 in West 4.4 mph 10 mph 73% 0.00 in 234 W/m2
12:14 60 °F 51.1 °F 30.04 in SW 4.7 mph 8 mph 72.3% 0.00 in 211 W/m2
12:19 60.1 °F 51.1 °F 30.04 in West 5 mph 9 mph 72% 0.00 in 227 W/m2
12:24 60.1 °F 50.8 °F 30.04 in West 2.9 mph 9 mph 71.2% 0.00 in 292 W/m2
12:29 60.3 °F 51.1 °F 30.04 in WSW 4 mph 7 mph 71.4% 0.00 in 299 W/m2
12:34 60.5 °F 51.4 °F 30.04 in West 3.3 mph 6 mph 71.8% 0.00 in 223 W/m2
12:39 60.5 °F 51.3 °F 30.04 in WSW 4.5 mph 8 mph 71.4% 0.00 in 167 W/m2
12:44 60.4 °F 51.2 °F 30.04 in SW 4.1 mph 7 mph 71.4% 0.00 in 118 W/m2
12:49 60.4 °F 51.3 °F 30.04 in WSW 4 mph 6 mph 71.8% 0.00 in 93 W/m2
12:54 60.4 °F 51.4 °F 30.04 in WSW 3.9 mph 9 mph 72% 0.00 in 77 W/m2
12:59 60.3 °F 51.5 °F 30.04 in WSW 3.6 mph 7 mph 72.6% 0.00 in 114 W/m2
13:04 60 °F 51.4 °F 30.04 in SW 3 mph 6 mph 73% 0.00 in 127 W/m2
13:09 59.8 °F 51.2 °F 30.04 in SW 4 mph 7 mph 73.2% 0.00 in 139 W/m2
13:14 59.7 °F 51 °F 30.04 in WSW 3.3 mph 6 mph 72.6% 0.00 in 149 W/m2
13:19 60.1 °F 50.9 °F 30.04 in SW 3.4 mph 6 mph 71.6% 0.00 in 199 W/m2
13:24 60.2 °F 51 °F 30.04 in SW 1.7 mph 4 mph 71.5% 0.00 in 186 W/m2
13:29 60.4 °F 51.4 °F 30.04 in WSW 3.6 mph 6 mph 72% 0.00 in 156 W/m2
13:34 60.2 °F 51.4 °F 30.04 in WNW 5.6 mph 10 mph 72.6% 0.00 in 107 W/m2
13:39 59.7 °F 51.5 °F 30.04 in WNW 5.1 mph 8 mph 74.2% 0.00 in 104 W/m2
13:44 59.4 °F 51.6 °F 30.05 in WNW 7.8 mph 17 mph 75.4% 0.00 in 70 W/m2
13:49 58.9 °F 51.4 °F 30.05 in West 7 mph 16 mph 76% 0.00 in 79 W/m2
13:54 58.3 °F 51.2 °F 30.05 in WNW 6.7 mph 14 mph 77.2% 0.00 in 102 W/m2
13:59 57.5 °F 50.8 °F 30.05 in West 4.7 mph 13 mph 78.4% 0.00 in 165 W/m2
14:04 57.2 °F 51 °F 30.06 in West 5.4 mph 10 mph 79.8% 0.00 in 221 W/m2
14:09 57.4 °F 51.5 °F 30.06 in WSW 3.6 mph 7 mph 80.8% 0.00 in 346 W/m2
14:14 57.6 °F 51.8 °F 30.06 in WSW 3.6 mph 7 mph 81% 0.00 in 366 W/m2
14:19 57.9 °F 52.5 °F 30.06 in West 4 mph 7 mph 82% 0.00 in 341 W/m2
14:24 58.2 °F 52.3 °F 30.05 in West 4.2 mph 10 mph 80.6% 0.00 in 171 W/m2
14:29 58.3 °F 52.2 °F 30.05 in West 3.2 mph 8 mph 80% 0.00 in 118 W/m2
14:34 58.5 °F 52.2 °F 30.05 in WSW 3.3 mph 6 mph 79.6% 0.00 in 113 W/m2
14:39 58.5 °F 52 °F 30.06 in SW 2.9 mph 7 mph 79% 0.00 in 148 W/m2
14:44 58.6 °F 52.1 °F 30.06 in SW 3 mph 5 mph 78.8% 0.00 in 178 W/m2
14:49 58.8 °F 52.3 °F 30.06 in SW 2.6 mph 6 mph 79% 0.00 in 188 W/m2
14:54 58.8 °F 52.3 °F 30.05 in SSW 3.2 mph 7 mph 79% 0.00 in 243 W/m2
14:59 58.6 °F 52.2 °F 30.06 in SSW 3.2 mph 7 mph 79% 0.00 in 322 W/m2
15:04 58.6 °F 52.1 °F 30.05 in SSW 3.7 mph 7 mph 79% 0.00 in 352 W/m2
15:09 58.6 °F 52.1 °F 30.05 in South 3.7 mph 8 mph 78.6% 0.00 in 380 W/m2
15:14 58.8 °F 52 °F 30.06 in SSW 3.6 mph 8 mph 78% 0.00 in 403 W/m2
15:19 59.3 °F 52.4 °F 30.06 in South 3.8 mph 6 mph 78% 0.00 in 559 W/m2
15:24 59.6 °F 52.8 °F 30.06 in SW 2.7 mph 6 mph 78% 0.00 in 895 W/m2
15:29 60.7 °F 53.7 °F 30.06 in SSW 2.5 mph 6 mph 77.8% 0.00 in 956 W/m2
15:34 61.1 °F 53.8 °F 30.06 in South 3.3 mph 6 mph 76.8% 0.00 in 338 W/m2
15:39 61.2 °F 53.6 °F 30.05 in South 3.5 mph 11 mph 75.8% 0.00 in 796 W/m2
15:44 61.5 °F 53.4 °F 30.05 in SSW 5 mph 11 mph 74.6% 0.00 in 796 W/m2
15:49 61.4 °F 51.8 °F 30.05 in SW 6.2 mph 11 mph 70.8% 0.00 in 338 W/m2
15:54 61.2 °F 51.7 °F 30.05 in SSW 4.2 mph 10 mph 71% 0.00 in 144 W/m2
15:59 61.2 °F 52 °F 30.05 in SW 6.7 mph 10 mph 72% 0.00 in 74 W/m2
16:04 61.2 °F 52.3 °F 30.05 in SW 3.5 mph 7 mph 72.6% 0.00 in 39 W/m2
16:09 61 °F 52.5 °F 30.05 in West 3.5 mph 10 mph 73.6% 0.00 in 30 W/m2
16:14 60.6 °F 52.9 °F 30.06 in West 3.4 mph 7 mph 75.6% 0.00 in 65 W/m2
16:19 60.4 °F 53.1 °F 30.06 in WSW 2.3 mph 6 mph 76.8% 0.00 in 86 W/m2
16:24 60.3 °F 53.1 °F 30.06 in SW 4.3 mph 9 mph 77% 0.00 in 111 W/m2
16:29 59.9 °F 52.7 °F 30.06 in WSW 3.3 mph 9 mph 77% 0.00 in 214 W/m2
16:34 59.8 °F 52.9 °F 30.06 in SW 3.6 mph 6 mph 77.8% 0.00 in 385 W/m2
16:39 60.2 °F 53.3 °F 30.06 in SW 2.9 mph 6 mph 78% 0.00 in 424 W/m2
16:44 60.5 °F 54 °F 30.06 in SW 2.5 mph 6 mph 78.8% 0.00 in 424 W/m2
16:49 60.7 °F 53.7 °F 30.06 in South 3.6 mph 6 mph 77.4% 0.00 in 835 W/m2
16:53 60.8 °F 53.5 °F 30.06 in SW 4.5 mph 8 mph 76.8% 0.00 in 225 W/m2
16:59 60.9 °F 53.3 °F 30.06 in SW 3.7 mph 8 mph 76% 0.00 in 185 W/m2
17:04 61.2 °F 53.6 °F 30.06 in SSW 2.1 mph 7 mph 76% 0.00 in 211 W/m2
17:09 61.3 °F 53.7 °F 30.06 in SSW 4.5 mph 7 mph 75.8% 0.00 in 216 W/m2
17:14 61.3 °F 53.4 °F 30.06 in SW 4.1 mph 7 mph 75% 0.00 in 155 W/m2
17:19 61.3 °F 53.2 °F 30.06 in SSW 4.9 mph 9 mph 74.2% 0.00 in 137 W/m2
17:24 61.2 °F 52.9 °F 30.06 in SSW 3.7 mph 9 mph 74% 0.00 in 118 W/m2
17:29 61.2 °F 52.9 °F 30.06 in SSW 4 mph 8 mph 74% 0.00 in 232 W/m2
17:34 61.2 °F 52.9 °F 30.06 in SSW 4.9 mph 11 mph 74% 0.00 in 185 W/m2
17:39 61 °F 52.7 °F 30.06 in SW 6.3 mph 11 mph 74% 0.00 in 91 W/m2
17:44 60.6 °F 52.7 °F 30.06 in SW 4.4 mph 9 mph 74.8% 0.00 in 127 W/m2
17:49 60.8 °F 53.1 °F 30.06 in WSW 4.8 mph 9 mph 75.6% 0.00 in 139 W/m2
17:54 60.9 °F 53.2 °F 30.06 in West 4.3 mph 8 mph 75.6% 0.00 in 142 W/m2
17:59 60.9 °F 52.7 °F 30.06 in WSW 7 mph 12 mph 74.2% 0.00 in 174 W/m2
18:04 60.8 °F 52.1 °F 30.06 in West 5.4 mph 11 mph 72.8% 0.00 in 195 W/m2
18:09 60.8 °F 51.9 °F 30.06 in West 6.4 mph 11 mph 72.2% 0.00 in 193 W/m2
18:14 61 °F 52.2 °F 30.06 in West 4.1 mph 10 mph 72.6% 0.00 in 176 W/m2
18:19 61 °F 52.3 °F 30.06 in West 4.1 mph 9 mph 73% 0.00 in 151 W/m2
18:23 61 °F 52.3 °F 30.06 in West 5.2 mph 12 mph 73% 0.00 in 144 W/m2
18:29 60.6 °F 52 °F 30.06 in West 5.9 mph 10 mph 73% 0.00 in 120 W/m2
18:34 60.4 °F 51.8 °F 30.06 in WSW 3.9 mph 8 mph 73% 0.00 in 127 W/m2
18:39 60.4 °F 51.8 °F 30.06 in WSW 4.1 mph 7 mph 73% 0.00 in 128 W/m2
18:44 60.4 °F 51.8 °F 30.06 in West 5.1 mph 9 mph 73% 0.00 in 116 W/m2
18:49 60.4 °F 51.8 °F 30.06 in WSW 3.1 mph 8 mph 73% 0.00 in 139 W/m2
18:54 60.4 °F 51.9 °F 30.07 in WNW 4.6 mph 8 mph 73.4% 0.00 in 146 W/m2
18:59 60.3 °F 52 °F 30.07 in West 3 mph 9 mph 74% 0.00 in 135 W/m2
19:04 60.4 °F 52.2 °F 30.07 in WSW 3.7 mph 7 mph 74% 0.00 in 105 W/m2
19:09 60.3 °F 52 °F 30.07 in WSW 3.4 mph 7 mph 74% 0.00 in 118 W/m2
19:14 60.3 °F 52 °F 30.07 in WSW 3.8 mph 8 mph 74% 0.00 in 98 W/m2
19:19 60.3 °F 52 °F 30.07 in WSW 4 mph 8 mph 74% 0.00 in 72 W/m2
19:24 60.3 °F 52 °F 30.07 in West 3.3 mph 8 mph 74% 0.00 in 139 W/m2
19:29 60.4 °F 52.2 °F 30.07 in WSW 5 mph 10 mph 74.4% 0.00 in 128 W/m2
19:34 60.2 °F 52.2 °F 30.07 in WSW 3.7 mph 7 mph 74.8% 0.00 in 111 W/m2
19:39 60.1 °F 52.2 °F 30.07 in WSW 5.5 mph 8 mph 75% 0.00 in 144 W/m2
19:44 59.8 °F 52.1 °F 30.07 in WSW 3.7 mph 8 mph 75.4% 0.00 in 105 W/m2
19:49 59.8 °F 52.2 °F 30.07 in SW 3.3 mph 6 mph 76% 0.00 in 105 W/m2
19:54 59.7 °F 52.2 °F 30.08 in SW 4.1 mph 7 mph 76% 0.00 in 100 W/m2
19:59 59.7 °F 52.2 °F 30.08 in WSW 4.4 mph 6 mph 76% 0.00 in 88 W/m2
20:04 59.7 °F 52.2 °F 30.08 in West 3.6 mph 7 mph 76% 0.00 in 72 W/m2
20:09 59.7 °F 52.2 °F 30.08 in WSW 2.8 mph 5 mph 76% 0.00 in 67 W/m2
20:14 59.6 °F 52.4 °F 30.08 in WSW 2.8 mph 5 mph 76.8% 0.00 in 58 W/m2
20:19 59.6 °F 52.4 °F 30.08 in WSW 1 mph 5 mph 77% 0.00 in 54 W/m2
20:24 59.6 °F 52.4 °F 30.08 in SW 2.1 mph 6 mph 77% 0.00 in 49 W/m2
20:29 59.5 °F 52.3 °F 30.08 in SW 2 mph 5 mph 77% 0.00 in 44 W/m2
20:34 59.5 °F 52.3 °F 30.08 in SW 2 mph 4 mph 77% 0.00 in 42 W/m2
20:39 59.4 °F 52.4 °F 30.08 in SW 2 mph 4 mph 77.8% 0.00 in 33 W/m2
20:44 59.4 °F 52.6 °F 30.08 in SW 1.4 mph 4 mph 78% 0.00 in 28 W/m2
20:49 59.4 °F 52.5 °F 30.08 in SW 2.4 mph 5 mph 78% 0.00 in 30 W/m2
20:54 59.3 °F 52.4 °F 30.08 in SW 3.3 mph 7 mph 78% 0.00 in 23 W/m2
20:59 59.2 °F 52.3 °F 30.08 in SW 2.7 mph 4 mph 78% 0.00 in 19 W/m2
21:04 59.2 °F 52.3 °F 30.08 in SW 1.6 mph 3 mph 78% 0.00 in 16 W/m2
21:09 59 °F 52.2 °F 30.08 in SW 1.6 mph 2 mph 78% 0.00 in 12 W/m2
21:14 58.8 °F 52 °F 30.08 in SW 0.4 mph 3 mph 78% 0.00 in 11 W/m2
21:19 58.7 °F 51.9 °F 30.08 in SW 1.9 mph 4 mph 78% 0.00 in 7 W/m2
21:24 58.6 °F 51.8 °F 30.08 in SW 2.1 mph 4 mph 78% 0.00 in 5 W/m2
21:29 58.5 °F 51.8 °F 30.08 in SW 3.2 mph 6 mph 78.2% 0.00 in 5 W/m2
21:34 58.5 °F 51.8 °F 30.08 in SW 2.8 mph 5 mph 78.4% 0.00 in 0 W/m2
21:39 58.5 °F 52 °F 30.08 in SW 2.4 mph 4 mph 79% 0.00 in 0 W/m2
21:44 58.5 °F 52 °F 30.08 in SW 0.9 mph 4 mph 79% 0.00 in 0 W/m2
21:49 58.3 °F 52 °F 30.08 in SSW 3.2 mph 6 mph 79.4% 0.00 in 0 W/m2
21:54 58.1 °F 52 °F 30.08 in SW 3.4 mph 7 mph 80% 0.00 in 0 W/m2
21:59 57.8 °F 51.9 °F 30.09 in SW 3.3 mph 6 mph 80.6% 0.00 in 0 W/m2
22:04 57.6 °F 51.9 °F 30.09 in SW 2.7 mph 7 mph 81% 0.00 in 0 W/m2
22:09 57.4 °F 51.9 °F 30.09 in SW 1.6 mph 5 mph 81.6% 0.00 in 0 W/m2
22:14 57.3 °F 51.9 °F 30.09 in SW 2.5 mph 6 mph 82% 0.00 in 0 W/m2
22:19 57.1 °F 51.9 °F 30.09 in SSW 1.8 mph 6 mph 82.6% 0.00 in 0 W/m2
22:24 56.9 °F 51.8 °F 30.09 in SSW 2.2 mph 6 mph 82.8% 0.00 in 0 W/m2
22:29 56.8 °F 51.8 °F 30.09 in SSW 2.1 mph 4 mph 83% 0.00 in 0 W/m2
22:34 56.6 °F 51.5 °F 30.09 in SW 3 mph 7 mph 83% 0.00 in 0 W/m2
22:39 56.4 °F 51.4 °F 30.09 in SW 1.9 mph 6 mph 83% 0.00 in 0 W/m2
22:44 56.2 °F 51.4 °F 30.09 in SW 2.1 mph 6 mph 84% 0.00 in 0 W/m2
22:49 56 °F 51.3 °F 30.09 in SW 3.2 mph 4 mph 84% 0.00 in 0 W/m2
22:54 55.9 °F 51.2 °F 30.09 in SW 1.8 mph 4 mph 84% 0.00 in 0 W/m2
22:59 55.8 °F 51.1 °F 30.09 in SW 1.3 mph 5 mph 84% 0.00 in 0 W/m2
23:04 55.6 °F 50.9 °F 30.09 in WSW 1.8 mph 5 mph 84.2% 0.00 in 0 W/m2
23:09 55.5 °F 51 °F 30.10 in West 3.1 mph 6 mph 85% 0.00 in 0 W/m2
23:14 55.4 °F 50.9 °F 30.10 in WSW 3.4 mph 8 mph 85% 0.00 in 0 W/m2
23:19 55.4 °F 50.9 °F 30.10 in WSW 2.4 mph 7 mph 85% 0.00 in 0 W/m2
23:24 55.2 °F 50.7 °F 30.10 in SW 2.9 mph 6 mph 85% 0.00 in 0 W/m2
23:29 55.2 °F 50.7 °F 30.10 in SW 4 mph 6 mph 85% 0.00 in 0 W/m2
23:34 55 °F 50.5 °F 30.10 in SW 2.7 mph 7 mph 85% 0.00 in 0 W/m2
23:39 55 °F 50.5 °F 30.10 in SW 3.6 mph 8 mph 85% 0.00 in 0 W/m2
23:44 55 °F 50.5 °F 30.10 in SW 4.1 mph 7 mph 85% 0.00 in 0 W/m2
23:49 55 °F 50.5 °F 30.10 in SW 4.5 mph 9 mph 84.8% 0.00 in 0 W/m2
23:54 54.9 °F 50.2 °F 30.10 in SW 3.1 mph 7 mph 84% 0.00 in 0 W/m2
23:59 54.8 °F 50.1 °F 30.10 in SW 4.8 mph 9 mph 84% 0.00 in 0 W/m2
Bath Spa Weather
Compliments of Weather Underground - 2 mb